createdAt,value
2023-03-20T00:00:05.373Z,98371.47
2023-03-20T00:02:36.688Z,98369.50
2023-03-20T00:05:20.659Z,98369.50
2023-03-20T00:07:51.314Z,98371.28
2023-03-20T00:10:23.717Z,98379.09
2023-03-20T00:12:57.949Z,98373.72
2023-03-20T00:15:33.582Z,98371.13
2023-03-20T00:18:03.133Z,98371.94
2023-03-20T00:20:34.080Z,98383.34
2023-03-20T00:23:04.748Z,98379.91
2023-03-20T00:25:37.160Z,98381.56
2023-03-20T00:28:40.806Z,98381.56
2023-03-20T00:31:27.702Z,98377.94
2023-03-20T00:34:01.257Z,98378.75
2023-03-20T00:36:31.258Z,98387.25
2023-03-20T00:39:00.830Z,98389.84
2023-03-20T00:41:34.591Z,98389.66
2023-03-20T00:44:21.124Z,98389.66
2023-03-20T00:46:55.474Z,98389.66
2023-03-20T00:49:30.522Z,98386.91
2023-03-20T00:52:01.830Z,98383.28
2023-03-20T00:54:31.277Z,98380.53
2023-03-20T00:57:04.498Z,98385.75
2023-03-20T00:59:40.479Z,98392.59
2023-03-20T01:02:13.508Z,98389.00
2023-03-20T01:04:43.789Z,98393.22
2023-03-20T01:07:16.856Z,98390.63
2023-03-20T01:09:46.527Z,98392.25
2023-03-20T01:12:17.584Z,98394.88
2023-03-20T01:14:56.541Z,98397.47
2023-03-20T01:17:28.242Z,98393.91
2023-03-20T01:19:57.268Z,98406.28
2023-03-20T01:22:26.763Z,98407.91
2023-03-20T01:24:56.818Z,98406.75
2023-03-20T01:27:26.288Z,98416.38
2023-03-20T01:29:56.641Z,98418.81
2023-03-20T01:32:26.521Z,98424.84
2023-03-20T01:34:55.250Z,98428.44
2023-03-20T01:37:29.181Z,98424.84
2023-03-20T01:39:58.642Z,98425.69
2023-03-20T01:42:27.775Z,98420.63
2023-03-20T01:44:58.623Z,98425.69
2023-03-20T01:47:29.416Z,98431.69
2023-03-20T01:50:47.203Z,98428.09
2023-03-20T01:53:22.273Z,98432.50
2023-03-20T01:55:55.816Z,98428.09
2023-03-20T01:58:36.935Z,98420.47
2023-03-20T02:01:14.266Z,98427.47
2023-03-20T02:03:49.985Z,98428.44
2023-03-20T02:06:22.840Z,98435.28
2023-03-20T02:08:55.063Z,98438.53
2023-03-20T02:11:27.817Z,98442.13
2023-03-20T02:14:01.754Z,98441.34
2023-03-20T02:16:32.201Z,98435.28
2023-03-20T02:19:01.790Z,98435.28
2023-03-20T02:22:43.802Z,98430.91
2023-03-20T02:25:58.681Z,98435.28
2023-03-20T02:29:26.662Z,98425.69
2023-03-20T02:32:44.315Z,98417.03
2023-03-20T02:36:24.198Z,98413.25
2023-03-20T02:39:48.223Z,98405.59
2023-03-20T02:42:33.978Z,98400.38
2023-03-20T02:45:16.162Z,98395.97
2023-03-20T02:47:58.077Z,98394.19
2023-03-20T02:50:39.918Z,98395.97
2023-03-20T02:53:32.725Z,98401.38
2023-03-20T02:56:14.020Z,98396.31
2023-03-20T02:58:53.172Z,98398.94
2023-03-20T03:01:33.812Z,98399.91
2023-03-20T03:04:10.717Z,98406.75
2023-03-20T03:06:46.745Z,98405.94
2023-03-20T03:09:23.186Z,98411.00
2023-03-20T03:12:01.115Z,98414.25
2023-03-20T03:14:39.637Z,98405.44
2023-03-20T03:17:12.927Z,98415.72
2023-03-20T03:19:49.746Z,98419.31
2023-03-20T03:22:21.821Z,98416.50
2023-03-20T03:24:54.213Z,98424.53
2023-03-20T03:27:30.833Z,98429.56
2023-03-20T03:30:07.415Z,98419.94
2023-03-20T03:32:49.284Z,98420.75
2023-03-20T03:35:25.236Z,98414.56
2023-03-20T03:38:03.139Z,98409.97
2023-03-20T03:40:44.402Z,98409.97
2023-03-20T03:43:26.308Z,98410.78
2023-03-20T03:46:02.769Z,98412.44
2023-03-20T03:48:40.598Z,98409.81
2023-03-20T03:51:16.352Z,98420.25
2023-03-20T03:53:54.630Z,98413.41
2023-03-20T03:56:30.569Z,98420.59
2023-03-20T03:59:10.139Z,98425.00
2023-03-20T04:01:44.552Z,98427.59
2023-03-20T04:04:20.422Z,98423.34
2023-03-20T04:06:50.742Z,98425.81
2023-03-20T04:09:21.347Z,98427.75
2023-03-20T04:11:54.274Z,98436.59
2023-03-20T04:14:24.713Z,98436.41
2023-03-20T04:16:54.718Z,98437.84
2023-03-20T04:19:24.734Z,98440.47
2023-03-20T04:21:55.302Z,98437.84
2023-03-20T04:24:23.687Z,98431.84
2023-03-20T04:26:53.605Z,98429.88
2023-03-20T04:29:24.449Z,98425.47
2023-03-20T04:31:54.535Z,98428.09
2023-03-20T04:34:25.509Z,98433.44
2023-03-20T04:36:54.885Z,98437.69
2023-03-20T04:39:26.552Z,98439.50
2023-03-20T04:41:56.373Z,98435.91
2023-03-20T04:44:28.287Z,98434.75
2023-03-20T04:46:57.881Z,98425.13
2023-03-20T04:49:27.571Z,98424.16
2023-03-20T04:51:56.958Z,98435.38
2023-03-20T04:54:27.466Z,98439.63
2023-03-20T04:56:57.362Z,98438.81
2023-03-20T04:59:30.135Z,98445.66
2023-03-20T05:01:59.074Z,98450.88
2023-03-20T05:04:29.548Z,98462.13
2023-03-20T05:06:59.016Z,98468.19
2023-03-20T05:09:28.695Z,98460.50
2023-03-20T05:11:59.165Z,98463.94
2023-03-20T05:14:30.856Z,98463.94
2023-03-20T05:17:02.057Z,98466.53
2023-03-20T05:19:31.544Z,98468.19
2023-03-20T05:22:01.266Z,98475.00
2023-03-20T05:24:31.422Z,98477.47
2023-03-20T05:27:01.384Z,98479.25
2023-03-20T05:29:32.802Z,98478.28
2023-03-20T05:32:01.877Z,98477.47
2023-03-20T05:34:32.183Z,98472.25
2023-03-20T05:37:01.585Z,98469.47
2023-03-20T05:39:32.204Z,98459.03
2023-03-20T05:42:04.066Z,98473.69
2023-03-20T05:44:35.483Z,98472.72
2023-03-20T05:47:05.211Z,98479.56
2023-03-20T05:49:34.839Z,98481.19
2023-03-20T05:52:05.157Z,98474.97
2023-03-20T05:54:36.074Z,98482.81
2023-03-20T05:57:05.308Z,98475.66
2023-03-20T05:59:36.663Z,98475.66
2023-03-20T06:02:05.448Z,98472.03
2023-03-20T06:04:35.787Z,98463.22
2023-03-20T06:07:07.227Z,98472.69
2023-03-20T06:09:37.284Z,98478.72
2023-03-20T06:12:09.392Z,98476.13
2023-03-20T06:14:40.431Z,98492.56
2023-03-20T06:17:09.510Z,98479.53
2023-03-20T06:19:39.547Z,98470.91
2023-03-20T06:22:08.936Z,98476.13
2023-03-20T06:24:38.797Z,98480.34
2023-03-20T06:27:08.994Z,98476.91
2023-03-20T06:29:40.395Z,98478.53
2023-03-20T06:32:11.634Z,98478.53
2023-03-20T06:34:41.982Z,98472.34
2023-03-20T06:37:12.447Z,98467.94
2023-03-20T06:39:43.755Z,98460.94
2023-03-20T06:42:16.115Z,98472.97
2023-03-20T06:44:48.547Z,98478.06
2023-03-20T06:47:20.578Z,98478.88
2023-03-20T06:49:51.435Z,98468.25
2023-03-20T06:52:23.520Z,98467.06
2023-03-20T06:54:53.607Z,98472.97
2023-03-20T06:57:24.558Z,98478.81
2023-03-20T06:59:56.850Z,98482.72
2023-03-20T07:02:26.490Z,98478.94
2023-03-20T07:04:56.828Z,98476.53
2023-03-20T07:07:27.781Z,98479.13
2023-03-20T07:09:58.392Z,98486.28
2023-03-20T07:12:29.797Z,98478.75
2023-03-20T07:15:01.477Z,98481.84
2023-03-20T07:17:32.728Z,98479.22
2023-03-20T07:20:03.046Z,98489.84
2023-03-20T07:22:33.507Z,98481.84
2023-03-20T07:25:03.215Z,98483.28
2023-03-20T07:27:32.113Z,98488.31
2023-03-20T07:30:03.367Z,98480.34
2023-03-20T07:32:33.370Z,98487.34
2023-03-20T07:35:03.450Z,98482.13
2023-03-20T07:37:33.882Z,98476.09
2023-03-20T07:40:04.317Z,98483.09
2023-03-20T07:42:34.514Z,98468.25
2023-03-20T07:45:08.544Z,98476.91
2023-03-20T07:47:38.473Z,98489.09
2023-03-20T07:50:08.502Z,98492.03
2023-03-20T07:52:38.757Z,98493.63
2023-03-20T07:55:08.568Z,98508.00
2023-03-20T07:57:39.162Z,98505.69
2023-03-20T08:00:12.576Z,98500.13
2023-03-20T08:02:43.016Z,98509.56
2023-03-20T08:05:12.311Z,98506.47
2023-03-20T08:07:42.052Z,98504.81
2023-03-20T08:10:12.944Z,98517.09
2023-03-20T08:12:43.476Z,98507.41
2023-03-20T08:15:14.027Z,98510.88
2023-03-20T08:17:45.708Z,98511.34
2023-03-20T08:20:18.176Z,98507.41
2023-03-20T08:22:50.197Z,98506.25
2023-03-20T08:25:21.351Z,98515.09
2023-03-20T08:27:51.425Z,98511.16
2023-03-20T08:30:23.627Z,98512.75
2023-03-20T08:32:53.617Z,98514.38
2023-03-20T08:35:33.033Z,98517.81
2023-03-20T08:38:03.949Z,98528.19
2023-03-20T08:40:34.374Z,98517.41
2023-03-20T08:43:03.844Z,98529.22
2023-03-20T08:45:34.922Z,98527.06
2023-03-20T08:48:06.058Z,98530.66
2023-03-20T08:50:35.637Z,98540.75
2023-03-20T08:53:05.977Z,98536.66
2023-03-20T08:55:35.659Z,98540.59
2023-03-20T08:58:05.837Z,98542.50
2023-03-20T09:00:38.017Z,98543.34
2023-03-20T09:03:08.759Z,98528.28
2023-03-20T09:05:39.771Z,98533.34
2023-03-20T09:08:10.005Z,98531.53
2023-03-20T09:10:39.085Z,98528.03
2023-03-20T09:13:25.684Z,98528.03
2023-03-20T09:15:58.549Z,98528.69
2023-03-20T09:18:27.864Z,98531.94
2023-03-20T09:20:57.616Z,98537.47
2023-03-20T09:23:26.750Z,98540.19
2023-03-20T09:25:55.402Z,98541.88
2023-03-20T09:28:26.121Z,98541.81
2023-03-20T09:31:00.911Z,98550.28
2023-03-20T09:33:30.481Z,98553.19
2023-03-20T09:36:00.050Z,98555.16
2023-03-20T09:38:29.306Z,98549.00
2023-03-20T09:41:00.752Z,98556.22
2023-03-20T09:43:52.594Z,98557.72
2023-03-20T09:46:49.636Z,98559.72
2023-03-20T09:49:40.989Z,98555.31
2023-03-20T09:52:26.150Z,98550.22
2023-03-20T09:55:00.427Z,98553.66
2023-03-20T09:57:37.663Z,98558.28
2023-03-20T10:00:14.292Z,98562.84
2023-03-20T10:02:54.818Z,98564.44
2023-03-20T10:05:29.202Z,98562.91
2023-03-20T10:08:04.029Z,98558.13
2023-03-20T10:10:49.159Z,98556.81
2023-03-20T10:14:00.189Z,98554.81
2023-03-20T10:16:48.489Z,98554.81
2023-03-20T10:19:28.968Z,98551.84
2023-03-20T10:22:03.733Z,98559.00
2023-03-20T10:24:41.227Z,98556.19
2023-03-20T10:27:25.070Z,98547.19
2023-03-20T10:30:19.700Z,98553.41
2023-03-20T10:32:59.523Z,98545.81
2023-03-20T10:35:40.525Z,98545.13
2023-03-20T10:38:28.660Z,98547.66
2023-03-20T10:41:00.404Z,98539.44
2023-03-20T10:43:38.235Z,98546.78
2023-03-20T10:46:16.868Z,98533.31
2023-03-20T10:48:52.627Z,98538.09
2023-03-20T10:51:32.048Z,98528.38
2023-03-20T10:54:07.662Z,98537.06
2023-03-20T10:56:43.250Z,98525.84
2023-03-20T10:59:23.968Z,98534.97
2023-03-20T11:01:54.045Z,98538.41
2023-03-20T11:04:23.988Z,98537.84
2023-03-20T11:07:03.482Z,98537.84
2023-03-20T11:09:33.925Z,98537.03
2023-03-20T11:12:05.489Z,98543.72
2023-03-20T11:14:40.695Z,98540.94
2023-03-20T11:17:12.636Z,98541.19
2023-03-20T11:19:43.093Z,98539.09
2023-03-20T11:22:28.202Z,98535.13
2023-03-20T11:25:03.181Z,98527.56
2023-03-20T11:27:35.419Z,98526.03
2023-03-20T11:30:10.531Z,98521.44
2023-03-20T11:32:47.584Z,98522.41
2023-03-20T11:35:31.597Z,98514.38
2023-03-20T11:38:16.023Z,98507.78
2023-03-20T11:40:48.047Z,98509.16
2023-03-20T11:43:22.531Z,98508.66
2023-03-20T11:45:57.687Z,98505.59
2023-03-20T11:48:39.209Z,98503.78
2023-03-20T11:51:13.088Z,98498.03
2023-03-20T11:53:59.669Z,98502.81
2023-03-20T11:56:32.472Z,98495.69
2023-03-20T11:59:05.752Z,98501.53
2023-03-20T12:01:47.387Z,98501.28
2023-03-20T12:04:21.844Z,98494.66
2023-03-20T12:06:58.966Z,98500.00
2023-03-20T12:09:59.642Z,98502.00
2023-03-20T12:12:42.219Z,98495.69
2023-03-20T12:15:23.863Z,98491.69
2023-03-20T12:17:59.202Z,98490.50
2023-03-20T12:20:37.891Z,98495.41
2023-03-20T12:23:20.011Z,98496.50
2023-03-20T12:25:58.807Z,98491.69
2023-03-20T12:28:38.013Z,98486.47
2023-03-20T12:31:25.196Z,98481.75
2023-03-20T12:34:02.365Z,98479.41
2023-03-20T12:36:36.625Z,98478.31
2023-03-20T12:39:12.078Z,98482.94
2023-03-20T12:42:05.311Z,98490.25
2023-03-20T12:44:48.446Z,98488.16
2023-03-20T12:47:54.681Z,98473.00
2023-03-20T12:50:34.166Z,98472.38
2023-03-20T12:53:38.175Z,98469.09
2023-03-20T12:56:28.126Z,98470.13
2023-03-20T12:59:11.878Z,98466.25
2023-03-20T13:01:53.822Z,98467.88
2023-03-20T13:04:45.467Z,98464.94
2023-03-20T13:07:22.032Z,98454.47
2023-03-20T13:10:08.951Z,98464.34
2023-03-20T13:12:55.341Z,98469.66
2023-03-20T13:16:11.654Z,98450.41
2023-03-20T13:19:00.581Z,98456.19
2023-03-20T13:21:39.359Z,98451.69
2023-03-20T13:24:28.481Z,98448.91
2023-03-20T13:27:13.555Z,98443.28
2023-03-20T13:29:54.886Z,98451.84
2023-03-20T13:32:40.200Z,98447.91
2023-03-20T13:35:44.145Z,98450.88
2023-03-20T13:38:22.296Z,98451.84
2023-03-20T13:41:00.803Z,98444.38
2023-03-20T13:43:35.713Z,98446.00
2023-03-20T13:46:11.760Z,98448.34
2023-03-20T13:48:45.186Z,98444.91
2023-03-20T13:51:27.715Z,98439.13
2023-03-20T13:54:17.780Z,98440.75
2023-03-20T13:56:57.464Z,98435.88
2023-03-20T13:59:52.373Z,98432.25
2023-03-20T14:03:07.788Z,98425.31
2023-03-20T14:05:42.656Z,98435.25
2023-03-20T14:08:39.381Z,98427.47
2023-03-20T14:11:32.519Z,98427.38
2023-03-20T14:14:14.038Z,98429.75
2023-03-20T14:16:43.948Z,98423.88
2023-03-20T14:19:22.299Z,98432.56
2023-03-20T14:21:56.853Z,98425.41
2023-03-20T14:24:30.281Z,98423.13
2023-03-20T14:27:02.012Z,98429.56
2023-03-20T14:29:39.038Z,98420.88
2023-03-20T14:32:53.390Z,98421.47
2023-03-20T14:35:28.532Z,98414.75
2023-03-20T14:38:28.364Z,98425.00
2023-03-20T14:41:12.860Z,98425.59
2023-03-20T14:44:24.380Z,98419.22
2023-03-20T14:47:01.819Z,98422.22
2023-03-20T14:49:56.553Z,98426.19
2023-03-20T14:52:47.995Z,98429.06
2023-03-20T14:55:34.252Z,98426.19
2023-03-20T14:58:54.507Z,98415.34
2023-03-20T15:01:42.093Z,98424.38
2023-03-20T15:04:25.135Z,98413.09
2023-03-20T15:07:00.307Z,98414.81
2023-03-20T15:09:33.222Z,98414.69
2023-03-20T15:12:06.206Z,98413.34
2023-03-20T15:14:46.100Z,98412.44
2023-03-20T15:17:22.889Z,98420.03
2023-03-20T15:19:52.861Z,98425.28
2023-03-20T15:22:23.078Z,98420.66
2023-03-20T15:24:57.563Z,98417.59
2023-03-20T15:27:33.092Z,98417.78
2023-03-20T15:30:05.036Z,98412.94
2023-03-20T15:32:38.200Z,98417.59
2023-03-20T15:35:12.115Z,98408.31
2023-03-20T15:37:42.728Z,98412.00
2023-03-20T15:40:24.642Z,98416.88
2023-03-20T15:43:00.648Z,98412.81
2023-03-20T15:45:35.859Z,98411.63
2023-03-20T15:48:14.695Z,98412.19
2023-03-20T15:50:49.193Z,98396.84
2023-03-20T15:53:22.456Z,98396.66
2023-03-20T15:56:14.925Z,98398.22
2023-03-20T15:58:52.819Z,98398.56
2023-03-20T16:01:25.813Z,98393.72
2023-03-20T16:04:01.922Z,98396.31
2023-03-20T16:06:32.419Z,98388.72
2023-03-20T16:09:06.901Z,98390.59
2023-03-20T16:11:41.106Z,98396.50
2023-03-20T16:14:17.162Z,98396.94
2023-03-20T16:16:51.195Z,98403.97
2023-03-20T16:19:22.094Z,98399.56
2023-03-20T16:21:55.734Z,98407.25
2023-03-20T16:24:32.746Z,98400.00
2023-03-20T16:27:03.157Z,98395.75
2023-03-20T16:29:33.684Z,98400.63
2023-03-20T16:32:08.821Z,98385.94
2023-03-20T16:34:40.060Z,98387.09
2023-03-20T16:37:25.347Z,98382.50
2023-03-20T16:40:17.547Z,98382.50
2023-03-20T16:42:48.536Z,98385.75
2023-03-20T16:45:27.734Z,98387.38
2023-03-20T16:48:26.763Z,98397.84
2023-03-20T16:51:10.237Z,98405.41
2023-03-20T16:53:46.389Z,98398.38
2023-03-20T16:56:19.109Z,98391.34
2023-03-20T16:58:48.729Z,98384.69
2023-03-20T17:01:23.546Z,98395.31
2023-03-20T17:03:57.107Z,98399.13
2023-03-20T17:06:55.123Z,98393.72
2023-03-20T17:09:28.226Z,98386.84
2023-03-20T17:12:07.719Z,98390.06
2023-03-20T17:14:37.996Z,98390.06
2023-03-20T17:17:14.459Z,98386.47
2023-03-20T17:19:44.241Z,98384.31
2023-03-20T17:22:18.628Z,98381.69
2023-03-20T17:24:47.500Z,98383.13
2023-03-20T17:27:18.668Z,98384.03
2023-03-20T17:29:49.392Z,98382.34
2023-03-20T17:32:24.478Z,98394.41
2023-03-20T17:34:53.626Z,98394.84
2023-03-20T17:37:29.821Z,98382.44
2023-03-20T17:40:01.049Z,98378.00
2023-03-20T17:42:32.207Z,98372.78
2023-03-20T17:45:04.131Z,98379.97
2023-03-20T17:47:34.395Z,98376.38
2023-03-20T17:50:04.692Z,98391.63
2023-03-20T17:52:34.814Z,98385.56
2023-03-20T17:55:03.694Z,98380.34
2023-03-20T17:57:37.439Z,98382.97
2023-03-20T18:00:09.722Z,98385.56
2023-03-20T18:02:41.222Z,98390.81
2023-03-20T18:05:12.261Z,98394.41
2023-03-20T18:07:42.381Z,98398.81
2023-03-20T18:10:29.205Z,98402.00
2023-03-20T18:12:58.800Z,98403.16
2023-03-20T18:15:28.561Z,98397.13
2023-03-20T18:17:59.679Z,98399.56
2023-03-20T18:20:32.118Z,98395.31
2023-03-20T18:23:02.693Z,98395.31
2023-03-20T18:25:31.451Z,98390.28
2023-03-20T18:28:03.332Z,98389.09
2023-03-20T18:30:36.845Z,98390.63
2023-03-20T18:33:09.293Z,98385.56
2023-03-20T18:35:39.089Z,98391.97
2023-03-20T18:38:12.028Z,98392.34
2023-03-20T18:40:43.228Z,98395.31
2023-03-20T18:43:12.120Z,98392.41
2023-03-20T18:45:41.858Z,98388.63
2023-03-20T18:48:16.791Z,98389.00
2023-03-20T18:50:50.913Z,98389.81
2023-03-20T18:53:20.134Z,98383.97
2023-03-20T18:55:48.994Z,98391.97
2023-03-20T18:58:23.893Z,98390.53
2023-03-20T19:00:55.940Z,98392.31
2023-03-20T19:03:28.648Z,98397.09
2023-03-20T19:06:00.144Z,98396.28
2023-03-20T19:08:30.212Z,98399.88
2023-03-20T19:10:59.194Z,98397.63
2023-03-20T19:13:27.646Z,98400.44
2023-03-20T19:15:58.334Z,98404.03
2023-03-20T19:18:29.440Z,98401.78
2023-03-20T19:20:59.822Z,98403.78
2023-03-20T19:23:30.002Z,98400.34
2023-03-20T19:25:59.486Z,98399.31
2023-03-20T19:28:40.735Z,98400.34
2023-03-20T19:31:11.596Z,98395.47
2023-03-20T19:33:43.121Z,98387.63
2023-03-20T19:36:28.745Z,98386.16
2023-03-20T19:39:00.360Z,98388.78
2023-03-20T19:41:32.259Z,98383.53
2023-03-20T19:44:01.820Z,98388.78
2023-03-20T19:46:40.658Z,98390.75
2023-03-20T19:49:20.171Z,98385.53
2023-03-20T19:51:50.262Z,98389.94
2023-03-20T19:54:20.291Z,98379.03
2023-03-20T19:56:48.692Z,98383.63
2023-03-20T19:59:17.604Z,98382.97
2023-03-20T20:01:47.172Z,98384.97
2023-03-20T20:04:18.465Z,98392.16
2023-03-20T20:06:47.778Z,98390.56
2023-03-20T20:09:18.120Z,98385.34
2023-03-20T20:11:48.189Z,98384.53
2023-03-20T20:14:23.653Z,98393.34
2023-03-20T20:16:54.565Z,98389.75
2023-03-20T20:19:24.807Z,98387.13
2023-03-20T20:24:43.163Z,98395.69
2023-03-20T20:27:17.554Z,98387.19
2023-03-20T20:29:50.188Z,98396.00
2023-03-20T20:32:21.764Z,98387.72
2023-03-20T20:40:33.245Z,98392.63
2023-03-20T20:43:03.341Z,98393.63
2023-03-20T20:45:38.972Z,98392.63
2023-03-20T20:48:10.397Z,98389.38
2023-03-20T20:50:45.032Z,98391.19
2023-03-20T20:53:14.435Z,98386.13
2023-03-20T20:55:43.996Z,98381.09
2023-03-20T20:58:12.450Z,98378.28
2023-03-20T21:00:51.703Z,98385.31
2023-03-20T21:03:22.563Z,98385.31
2023-03-20T21:05:54.045Z,98396.13
2023-03-20T21:08:23.283Z,98387.47
2023-03-20T21:10:52.344Z,98390.44
2023-03-20T21:13:21.869Z,98390.44
2023-03-20T21:15:59.895Z,98386.00
2023-03-20T21:18:29.187Z,98386.19
2023-03-20T21:21:08.608Z,98390.44
2023-03-20T21:23:38.362Z,98389.16
2023-03-20T21:26:08.600Z,98386.72
2023-03-20T21:28:38.776Z,98385.25
2023-03-20T21:31:24.502Z,98392.09
2023-03-20T21:33:56.727Z,98384.28
2023-03-20T21:36:27.969Z,98391.13
2023-03-20T21:39:13.639Z,98389.50
2023-03-20T21:41:43.576Z,98383.47
2023-03-20T21:44:17.682Z,98380.22
2023-03-20T21:53:12.058Z,98384.00
2023-03-20T21:56:17.074Z,98382.53
2023-03-20T22:01:45.085Z,98382.53
2023-03-20T22:04:44.895Z,98379.28
2023-03-20T22:10:08.562Z,98384.03
2023-03-20T22:15:54.503Z,98383.94
2023-03-20T22:18:50.594Z,98380.50
2023-03-20T22:21:39.077Z,98377.59
2023-03-20T22:24:45.185Z,98376.94
2023-03-20T22:27:26.858Z,98381.19
2023-03-20T22:36:08.136Z,98383.50
2023-03-20T22:44:35.367Z,98382.75
2023-03-20T22:46:44.793Z,98383.72
2023-03-20T22:49:15.340Z,98385.53
2023-03-20T22:52:03.245Z,98381.47
2023-03-20T22:54:34.740Z,98381.28
2023-03-20T22:57:04.162Z,98380.66
2023-03-20T22:59:35.704Z,98375.59
2023-03-20T23:02:05.201Z,98372.97
2023-03-20T23:04:34.351Z,98375.78
2023-03-20T23:07:03.746Z,98366.66
2023-03-20T23:09:32.636Z,98371.88
2023-03-20T23:12:02.642Z,98367.63
2023-03-20T23:14:44.749Z,98372.38
2023-03-20T23:17:18.202Z,98370.59
2023-03-20T23:19:54.099Z,98372.38
2023-03-20T23:22:29.234Z,98370.44
2023-03-20T23:25:02.851Z,98365.38
2023-03-20T23:27:38.950Z,98367.16
2023-03-20T23:30:09.628Z,98357.53
2023-03-20T23:32:42.335Z,98364.41
2023-03-20T23:35:13.700Z,98366.19
2023-03-20T23:37:43.500Z,98360.16
2023-03-20T23:40:16.586Z,98359.81
2023-03-20T23:42:46.115Z,98360.47
2023-03-20T23:45:20.378Z,98348.38
2023-03-20T23:47:51.435Z,98353.25
2023-03-20T23:50:42.670Z,98346.25
2023-03-20T23:53:20.373Z,98345.28
2023-03-20T23:55:52.400Z,98340.06
2023-03-20T23:58:23.116Z,98334.00
